South Haven, Minnesota
Current Conditions -  °F | °C
As of 12:56 PM on Tuesday 27 Jan 2015 (Local Time) from KMGG Reporting Station
Overcast Overcast  
Wind Chill: 35°   Ceiling: 1800
Heat Index: 35°   Visibility: 10mi
Dew Point: 29°   Wind: 0mph
Humidity: 79%   Direction: NA
Pressure: 30.15"   Gusts: NA
Location:  45.29°N, 94.21°W
Report Text: KMGG 271856Z AUTO 00000KT 10SM OVC018 02/M02 A3015 RMK AO2 T00161017
Loading
Personal Weather Stations






























Interactive Weather Map New forecast layout! Learn more

10-Day Weather Forecast

Advertisements
Track Severe Weather on mobile